sensor_id;sensor_type;location;lat;lon;timestamp;P1;durP1;ratioP1;P2;durP2;ratioP2
77802;SDS011;66993;48.256;16.422;2023-11-21T00:03:40;6.2;;;2.2;;
77802;SDS011;66993;48.256;16.422;2023-11-21T00:08:41;4.4;;;2.0;;
77802;SDS011;66993;48.256;16.422;2023-11-21T00:13:42;5.3;;;1.9;;
77802;SDS011;66993;48.256;16.422;2023-11-21T00:18:44;6.6;;;2.8;;
77802;SDS011;66993;48.256;16.422;2023-11-21T00:23:45;4.6;;;1.7;;
77802;SDS011;66993;48.256;16.422;2023-11-21T00:28:46;6.3;;;2.4;;
77802;SDS011;66993;48.256;16.422;2023-11-21T00:33:48;5.0;;;1.8;;
77802;SDS011;66993;48.256;16.422;2023-11-21T00:38:49;5.2;;;2.1;;
77802;SDS011;66993;48.256;16.422;2023-11-21T00:43:50;4.3;;;2.2;;
77802;SDS011;66993;48.256;16.422;2023-11-21T00:48:51;5.1;;;1.6;;
77802;SDS011;66993;48.256;16.422;2023-11-21T00:53:53;6.6;;;2.5;;
77802;SDS011;66993;48.256;16.422;2023-11-21T00:58:54;6.4;;;2.1;;
77802;SDS011;66993;48.256;16.422;2023-11-21T01:03:56;5.1;;;2.1;;
77802;SDS011;66993;48.256;16.422;2023-11-21T01:08:56;6.7;;;2.3;;
77802;SDS011;66993;48.256;16.422;2023-11-21T01:13:58;4.6;;;2.0;;
77802;SDS011;66993;48.256;16.422;2023-11-21T01:18:59;6.2;;;2.9;;
77802;SDS011;66993;48.256;16.422;2023-11-21T01:24:01;5.6;;;2.3;;
77802;SDS011;66993;48.256;16.422;2023-11-21T01:29:02;5.2;;;2.3;;
77802;SDS011;66993;48.256;16.422;2023-11-21T01:34:03;7.5;;;2.9;;
77802;SDS011;66993;48.256;16.422;2023-11-21T01:39:04;4.0;;;1.8;;
77802;SDS011;66993;48.256;16.422;2023-11-21T01:44:06;4.6;;;2.5;;
77802;SDS011;66993;48.256;16.422;2023-11-21T01:49:07;7.4;;;2.1;;
77802;SDS011;66993;48.256;16.422;2023-11-21T01:54:08;3.7;;;2.1;;
77802;SDS011;66993;48.256;16.422;2023-11-21T01:59:09;5.3;;;2.5;;
77802;SDS011;66993;48.256;16.422;2023-11-21T02:04:10;6.0;;;2.2;;
77802;SDS011;66993;48.256;16.422;2023-11-21T02:09:12;5.2;;;2.6;;
77802;SDS011;66993;48.256;16.422;2023-11-21T02:14:13;4.4;;;2.2;;
77802;SDS011;66993;48.256;16.422;2023-11-21T02:19:15;7.3;;;2.5;;
77802;SDS011;66993;48.256;16.422;2023-11-21T02:24:16;5.8;;;2.4;;
77802;SDS011;66993;48.256;16.422;2023-11-21T02:29:17;5.4;;;2.2;;
77802;SDS011;66993;48.256;16.422;2023-11-21T02:34:18;5.0;;;2.9;;
77802;SDS011;66993;48.256;16.422;2023-11-21T02:39:19;7.2;;;2.7;;
77802;SDS011;66993;48.256;16.422;2023-11-21T02:44:21;8.0;;;3.2;;
77802;SDS011;66993;48.256;16.422;2023-11-21T02:49:22;7.8;;;3.5;;
77802;SDS011;66993;48.256;16.422;2023-11-21T02:54:24;5.2;;;2.9;;
77802;SDS011;66993;48.256;16.422;2023-11-21T02:59:25;8.0;;;3.4;;
77802;SDS011;66993;48.256;16.422;2023-11-21T03:04:26;7.2;;;3.3;;
77802;SDS011;66993;48.256;16.422;2023-11-21T03:09:27;5.8;;;3.1;;
77802;SDS011;66993;48.256;16.422;2023-11-21T03:14:29;5.4;;;3.1;;
77802;SDS011;66993;48.256;16.422;2023-11-21T03:19:30;6.0;;;2.7;;
77802;SDS011;66993;48.256;16.422;2023-11-21T03:24:31;7.6;;;3.2;;
77802;SDS011;66993;48.256;16.422;2023-11-21T03:29:32;10.0;;;3.9;;
77802;SDS011;66993;48.256;16.422;2023-11-21T03:34:34;6.6;;;3.4;;
77802;SDS011;66993;48.256;16.422;2023-11-21T03:39:35;8.5;;;4.2;;
77802;SDS011;66993;48.256;16.422;2023-11-21T03:44:36;10.5;;;4.1;;
77802;SDS011;66993;48.256;16.422;2023-11-21T03:49:38;8.7;;;4.8;;
77802;SDS011;66993;48.256;16.422;2023-11-21T03:54:39;9.7;;;3.8;;
77802;SDS011;66993;48.256;16.422;2023-11-21T03:59:41;8.7;;;4.2;;
77802;SDS011;66993;48.256;16.422;2023-11-21T04:04:42;6.6;;;4.1;;
77802;SDS011;66993;48.256;16.422;2023-11-21T04:09:43;7.2;;;3.9;;
77802;SDS011;66993;48.256;16.422;2023-11-21T04:14:44;10.4;;;4.7;;
77802;SDS011;66993;48.256;16.422;2023-11-21T04:19:46;10.0;;;3.9;;
77802;SDS011;66993;48.256;16.422;2023-11-21T04:24:47;10.8;;;4.4;;
77802;SDS011;66993;48.256;16.422;2023-11-21T04:29:49;9.5;;;4.5;;
77802;SDS011;66993;48.256;16.422;2023-11-21T04:34:50;9.7;;;4.1;;
77802;SDS011;66993;48.256;16.422;2023-11-21T04:39:51;6.8;;;4.7;;
77802;SDS011;66993;48.256;16.422;2023-11-21T04:44:52;8.8;;;3.7;;
77802;SDS011;66993;48.256;16.422;2023-11-21T04:49:54;10.1;;;4.5;;
77802;SDS011;66993;48.256;16.422;2023-11-21T04:54:55;8.2;;;4.3;;
77802;SDS011;66993;48.256;16.422;2023-11-21T04:59:56;9.2;;;3.1;;
77802;SDS011;66993;48.256;16.422;2023-11-21T05:04:57;8.3;;;4.0;;
77802;SDS011;66993;48.256;16.422;2023-11-21T05:09:59;10.9;;;4.6;;
77802;SDS011;66993;48.256;16.422;2023-11-21T05:15:00;10.7;;;4.7;;
77802;SDS011;66993;48.256;16.422;2023-11-21T05:20:01;8.5;;;4.7;;
77802;SDS011;66993;48.256;16.422;2023-11-21T05:25:03;11.7;;;4.3;;
77802;SDS011;66993;48.256;16.422;2023-11-21T05:30:04;11.3;;;4.3;;
77802;SDS011;66993;48.256;16.422;2023-11-21T05:35:05;7.8;;;4.4;;
77802;SDS011;66993;48.256;16.422;2023-11-21T05:40:07;8.7;;;3.7;;
77802;SDS011;66993;48.256;16.422;2023-11-21T05:50:13;8.6;;;4.5;;
77802;SDS011;66993;48.256;16.422;2023-11-21T05:55:10;9.7;;;4.7;;
77802;SDS011;66993;48.256;16.422;2023-11-21T06:00:12;11.8;;;4.8;;
77802;SDS011;66993;48.256;16.422;2023-11-21T06:05:13;11.0;;;5.3;;
77802;SDS011;66993;48.256;16.422;2023-11-21T06:10:15;11.1;;;5.4;;
77802;SDS011;66993;48.256;16.422;2023-11-21T06:15:15;9.7;;;4.9;;
77802;SDS011;66993;48.256;16.422;2023-11-21T06:20:17;13.0;;;6.3;;
77802;SDS011;66993;48.256;16.422;2023-11-21T06:25:18;12.5;;;5.3;;
77802;SDS011;66993;48.256;16.422;2023-11-21T06:30:19;12.1;;;5.8;;
77802;SDS011;66993;48.256;16.422;2023-11-21T06:35:20;14.3;;;6.2;;
77802;SDS011;66993;48.256;16.422;2023-11-21T06:40:23;13.5;;;5.9;;
77802;SDS011;66993;48.256;16.422;2023-11-21T06:45:23;10.6;;;6.3;;
77802;SDS011;66993;48.256;16.422;2023-11-21T06:50:24;12.2;;;5.8;;
77802;SDS011;66993;48.256;16.422;2023-11-21T06:55:25;15.8;;;6.1;;
77802;SDS011;66993;48.256;16.422;2023-11-21T07:00:27;12.5;;;6.0;;
77802;SDS011;66993;48.256;16.422;2023-11-21T07:05:28;10.4;;;5.3;;
77802;SDS011;66993;48.256;16.422;2023-11-21T07:10:29;14.1;;;6.2;;
77802;SDS011;66993;48.256;16.422;2023-11-21T07:15:30;12.2;;;5.2;;
77802;SDS011;66993;48.256;16.422;2023-11-21T07:20:32;10.2;;;5.3;;
77802;SDS011;66993;48.256;16.422;2023-11-21T07:25:33;11.0;;;5.7;;
77802;SDS011;66993;48.256;16.422;2023-11-21T07:30:34;8.0;;;4.7;;
77802;SDS011;66993;48.256;16.422;2023-11-21T07:35:35;16.1;;;5.9;;
77802;SDS011;66993;48.256;16.422;2023-11-21T07:40:37;11.8;;;5.3;;
77802;SDS011;66993;48.256;16.422;2023-11-21T07:45:38;11.6;;;5.5;;
77802;SDS011;66993;48.256;16.422;2023-11-21T07:50:39;10.1;;;5.1;;
77802;SDS011;66993;48.256;16.422;2023-11-21T07:55:40;11.8;;;4.9;;
77802;SDS011;66993;48.256;16.422;2023-11-21T08:00:42;10.4;;;4.9;;
77802;SDS011;66993;48.256;16.422;2023-11-21T08:05:43;15.5;;;5.4;;
77802;SDS011;66993;48.256;16.422;2023-11-21T08:10:45;11.7;;;5.5;;
77802;SDS011;66993;48.256;16.422;2023-11-21T08:15:45;13.3;;;5.6;;
77802;SDS011;66993;48.256;16.422;2023-11-21T08:20:47;13.2;;;5.3;;
77802;SDS011;66993;48.256;16.422;2023-11-21T08:25:48;15.6;;;5.6;;
77802;SDS011;66993;48.256;16.422;2023-11-21T08:30:49;13.7;;;6.3;;
77802;SDS011;66993;48.256;16.422;2023-11-21T08:35:50;14.7;;;5.3;;
77802;SDS011;66993;48.256;16.422;2023-11-21T08:40:52;14.8;;;6.3;;
77802;SDS011;66993;48.256;16.422;2023-11-21T08:45:53;12.1;;;5.1;;
77802;SDS011;66993;48.256;16.422;2023-11-21T08:50:54;9.3;;;4.2;;
77802;SDS011;66993;48.256;16.422;2023-11-21T08:55:56;8.8;;;3.7;;
77802;SDS011;66993;48.256;16.422;2023-11-21T09:00:56;9.2;;;3.5;;
77802;SDS011;66993;48.256;16.422;2023-11-21T09:05:58;10.0;;;4.1;;
77802;SDS011;66993;48.256;16.422;2023-11-21T09:10:59;10.9;;;4.4;;
77802;SDS011;66993;48.256;16.422;2023-11-21T09:16:00;10.1;;;4.5;;
77802;SDS011;66993;48.256;16.422;2023-11-21T09:21:02;9.8;;;4.0;;
77802;SDS011;66993;48.256;16.422;2023-11-21T09:26:03;8.5;;;3.8;;
77802;SDS011;66993;48.256;16.422;2023-11-21T09:31:05;9.2;;;3.9;;
77802;SDS011;66993;48.256;16.422;2023-11-21T09:36:10;8.4;;;3.0;;
77802;SDS011;66993;48.256;16.422;2023-11-21T09:41:09;8.7;;;3.2;;
77802;SDS011;66993;48.256;16.422;2023-11-21T09:46:08;6.9;;;2.8;;
77802;SDS011;66993;48.256;16.422;2023-11-21T09:51:09;9.9;;;2.6;;
77802;SDS011;66993;48.256;16.422;2023-11-21T09:56:11;5.6;;;2.8;;
77802;SDS011;66993;48.256;16.422;2023-11-21T10:01:12;5.3;;;2.2;;
77802;SDS011;66993;48.256;16.422;2023-11-21T10:06:13;6.7;;;2.7;;
77802;SDS011;66993;48.256;16.422;2023-11-21T10:11:15;6.3;;;1.9;;
77802;SDS011;66993;48.256;16.422;2023-11-21T10:16:16;4.2;;;2.1;;
77802;SDS011;66993;48.256;16.422;2023-11-21T10:21:17;7.0;;;2.6;;
77802;SDS011;66993;48.256;16.422;2023-11-21T10:26:18;6.0;;;1.9;;
77802;SDS011;66993;48.256;16.422;2023-11-21T10:31:20;5.2;;;2.0;;
77802;SDS011;66993;48.256;16.422;2023-11-21T10:36:25;4.9;;;2.1;;
77802;SDS011;66993;48.256;16.422;2023-11-21T10:41:22;7.0;;;2.1;;
77802;SDS011;66993;48.256;16.422;2023-11-21T10:46:23;4.9;;;1.9;;
77802;SDS011;66993;48.256;16.422;2023-11-21T10:51:25;5.7;;;1.8;;
77802;SDS011;66993;48.256;16.422;2023-11-21T10:56:26;4.7;;;2.0;;
77802;SDS011;66993;48.256;16.422;2023-11-21T11:01:27;6.0;;;2.0;;
77802;SDS011;66993;48.256;16.422;2023-11-21T11:06:28;5.3;;;2.4;;
77802;SDS011;66993;48.256;16.422;2023-11-21T11:11:30;5.0;;;2.2;;
77802;SDS011;66993;48.256;16.422;2023-11-21T11:16:31;3.6;;;1.8;;
77802;SDS011;66993;48.256;16.422;2023-11-21T11:21:35;5.7;;;2.1;;
77802;SDS011;66993;48.256;16.422;2023-11-21T11:26:36;3.7;;;1.8;;
77802;SDS011;66993;48.256;16.422;2023-11-21T11:31:37;6.2;;;2.6;;
77802;SDS011;66993;48.256;16.422;2023-11-21T11:36:39;4.9;;;2.3;;
77802;SDS011;66993;48.256;16.422;2023-11-21T11:41:38;4.7;;;1.8;;
77802;SDS011;66993;48.256;16.422;2023-11-21T11:46:40;4.5;;;2.2;;
77802;SDS011;66993;48.256;16.422;2023-11-21T11:51:40;5.5;;;2.1;;
77802;SDS011;66993;48.256;16.422;2023-11-21T11:56:45;4.7;;;2.1;;
77802;SDS011;66993;48.256;16.422;2023-11-21T12:01:44;6.8;;;2.5;;
77802;SDS011;66993;48.256;16.422;2023-11-21T12:06:44;6.3;;;2.1;;
77802;SDS011;66993;48.256;16.422;2023-11-21T12:11:46;7.0;;;2.4;;
77802;SDS011;66993;48.256;16.422;2023-11-21T12:16:46;6.9;;;2.2;;
77802;SDS011;66993;48.256;16.422;2023-11-21T12:21:48;6.6;;;2.3;;
77802;SDS011;66993;48.256;16.422;2023-11-21T12:26:48;4.0;;;2.2;;
77802;SDS011;66993;48.256;16.422;2023-11-21T12:31:50;5.1;;;2.2;;
77802;SDS011;66993;48.256;16.422;2023-11-21T12:36:51;5.1;;;2.4;;
77802;SDS011;66993;48.256;16.422;2023-11-21T12:41:52;5.4;;;2.5;;
77802;SDS011;66993;48.256;16.422;2023-11-21T12:46:54;6.3;;;2.5;;
77802;SDS011;66993;48.256;16.422;2023-11-21T12:51:56;6.1;;;2.7;;
77802;SDS011;66993;48.256;16.422;2023-11-21T12:57:00;6.7;;;2.2;;
77802;SDS011;66993;48.256;16.422;2023-11-21T13:01:58;6.4;;;3.2;;
77802;SDS011;66993;48.256;16.422;2023-11-21T13:07:03;5.4;;;2.6;;
77802;SDS011;66993;48.256;16.422;2023-11-21T13:12:00;7.2;;;3.0;;
77802;SDS011;66993;48.256;16.422;2023-11-21T13:17:02;6.7;;;3.1;;
77802;SDS011;66993;48.256;16.422;2023-11-21T13:22:02;6.9;;;2.6;;
77802;SDS011;66993;48.256;16.422;2023-11-21T13:27:04;6.9;;;3.2;;
77802;SDS011;66993;48.256;16.422;2023-11-21T13:32:05;6.6;;;3.0;;
77802;SDS011;66993;48.256;16.422;2023-11-21T13:37:07;5.2;;;2.8;;
77802;SDS011;66993;48.256;16.422;2023-11-21T13:42:08;7.9;;;3.2;;
77802;SDS011;66993;48.256;16.422;2023-11-21T13:47:09;6.1;;;2.5;;
77802;SDS011;66993;48.256;16.422;2023-11-21T13:52:11;6.7;;;3.0;;
77802;SDS011;66993;48.256;16.422;2023-11-21T13:57:13;6.6;;;2.3;;
77802;SDS011;66993;48.256;16.422;2023-11-21T14:02:14;6.5;;;2.8;;
77802;SDS011;66993;48.256;16.422;2023-11-21T14:07:13;7.2;;;3.9;;
77802;SDS011;66993;48.256;16.422;2023-11-21T14:12:16;7.7;;;2.9;;
77802;SDS011;66993;48.256;16.422;2023-11-21T14:17:16;8.3;;;3.6;;
77802;SDS011;66993;48.256;16.422;2023-11-21T14:22:18;6.5;;;2.5;;
77802;SDS011;66993;48.256;16.422;2023-11-21T14:27:18;7.2;;;2.7;;
77802;SDS011;66993;48.256;16.422;2023-11-21T14:32:20;6.6;;;2.8;;
77802;SDS011;66993;48.256;16.422;2023-11-21T14:37:22;7.0;;;2.3;;
77802;SDS011;66993;48.256;16.422;2023-11-21T14:42:24;7.6;;;3.1;;
77802;SDS011;66993;48.256;16.422;2023-11-21T14:47:24;9.4;;;3.5;;
77802;SDS011;66993;48.256;16.422;2023-11-21T14:52:25;7.2;;;3.9;;
77802;SDS011;66993;48.256;16.422;2023-11-21T14:57:26;5.8;;;3.1;;
77802;SDS011;66993;48.256;16.422;2023-11-21T15:02:27;5.9;;;2.5;;
77802;SDS011;66993;48.256;16.422;2023-11-21T15:07:28;9.1;;;4.0;;
77802;SDS011;66993;48.256;16.422;2023-11-21T15:12:30;7.8;;;3.1;;
77802;SDS011;66993;48.256;16.422;2023-11-21T15:17:32;5.1;;;2.9;;
77802;SDS011;66993;48.256;16.422;2023-11-21T15:22:33;4.4;;;2.7;;
77802;SDS011;66993;48.256;16.422;2023-11-21T15:27:33;5.1;;;2.8;;
77802;SDS011;66993;48.256;16.422;2023-11-21T15:32:39;6.8;;;3.4;;
77802;SDS011;66993;48.256;16.422;2023-11-21T15:37:36;6.7;;;3.3;;
77802;SDS011;66993;48.256;16.422;2023-11-21T15:42:37;9.4;;;3.9;;
77802;SDS011;66993;48.256;16.422;2023-11-21T15:47:39;10.0;;;4.7;;
77802;SDS011;66993;48.256;16.422;2023-11-21T15:52:40;10.3;;;4.6;;
77802;SDS011;66993;48.256;16.422;2023-11-21T15:57:41;7.9;;;5.1;;
77802;SDS011;66993;48.256;16.422;2023-11-21T16:02:43;8.9;;;4.9;;
77802;SDS011;66993;48.256;16.422;2023-11-21T16:07:44;10.8;;;5.1;;
77802;SDS011;66993;48.256;16.422;2023-11-21T16:12:44;10.8;;;6.1;;
77802;SDS011;66993;48.256;16.422;2023-11-21T16:17:46;9.8;;;6.0;;
77802;SDS011;66993;48.256;16.422;2023-11-21T16:22:47;10.2;;;6.2;;
77802;SDS011;66993;48.256;16.422;2023-11-21T16:27:48;10.6;;;6.0;;
77802;SDS011;66993;48.256;16.422;2023-11-21T16:32:50;10.0;;;5.9;;
77802;SDS011;66993;48.256;16.422;2023-11-21T16:37:51;10.5;;;5.8;;
77802;SDS011;66993;48.256;16.422;2023-11-21T16:42:52;9.6;;;5.9;;
77802;SDS011;66993;48.256;16.422;2023-11-21T16:47:53;10.9;;;6.6;;
77802;SDS011;66993;48.256;16.422;2023-11-21T16:52:55;10.9;;;6.0;;
77802;SDS011;66993;48.256;16.422;2023-11-21T16:57:56;8.8;;;5.4;;
77802;SDS011;66993;48.256;16.422;2023-11-21T17:02:57;11.0;;;5.6;;
77802;SDS011;66993;48.256;16.422;2023-11-21T17:07:59;9.1;;;5.5;;
77802;SDS011;66993;48.256;16.422;2023-11-21T17:12:59;10.0;;;5.8;;
77802;SDS011;66993;48.256;16.422;2023-11-21T17:18:01;9.8;;;5.9;;
77802;SDS011;66993;48.256;16.422;2023-11-21T17:23:04;9.1;;;5.6;;
77802;SDS011;66993;48.256;16.422;2023-11-21T17:28:04;9.9;;;6.1;;
77802;SDS011;66993;48.256;16.422;2023-11-21T17:33:05;11.2;;;5.3;;
77802;SDS011;66993;48.256;16.422;2023-11-21T17:38:07;8.7;;;5.4;;
77802;SDS011;66993;48.256;16.422;2023-11-21T17:43:07;8.2;;;4.9;;
77802;SDS011;66993;48.256;16.422;2023-11-21T17:48:09;8.1;;;5.1;;
77802;SDS011;66993;48.256;16.422;2023-11-21T17:53:10;10.0;;;5.5;;
77802;SDS011;66993;48.256;16.422;2023-11-21T17:58:12;8.9;;;4.5;;
77802;SDS011;66993;48.256;16.422;2023-11-21T18:03:12;8.6;;;5.0;;
77802;SDS011;66993;48.256;16.422;2023-11-21T18:08:14;7.6;;;3.9;;
77802;SDS011;66993;48.256;16.422;2023-11-21T18:13:15;6.7;;;3.9;;
77802;SDS011;66993;48.256;16.422;2023-11-21T18:18:22;6.7;;;4.6;;
77802;SDS011;66993;48.256;16.422;2023-11-21T18:23:17;6.7;;;4.6;;
77802;SDS011;66993;48.256;16.422;2023-11-21T18:28:18;6.3;;;4.0;;
77802;SDS011;66993;48.256;16.422;2023-11-21T18:33:20;6.4;;;4.6;;
77802;SDS011;66993;48.256;16.422;2023-11-21T18:38:21;7.8;;;3.8;;
77802;SDS011;66993;48.256;16.422;2023-11-21T18:43:23;6.2;;;4.2;;
77802;SDS011;66993;48.256;16.422;2023-11-21T18:48:23;8.3;;;4.0;;
77802;SDS011;66993;48.256;16.422;2023-11-21T18:53:25;6.0;;;4.2;;
77802;SDS011;66993;48.256;16.422;2023-11-21T18:58:26;6.2;;;3.9;;
77802;SDS011;66993;48.256;16.422;2023-11-21T19:03:28;6.3;;;3.8;;
77802;SDS011;66993;48.256;16.422;2023-11-21T19:08:28;5.9;;;3.7;;
77802;SDS011;66993;48.256;16.422;2023-11-21T19:13:30;7.4;;;4.0;;
77802;SDS011;66993;48.256;16.422;2023-11-21T19:18:31;6.2;;;3.8;;
77802;SDS011;66993;48.256;16.422;2023-11-21T19:23:33;5.5;;;3.8;;
77802;SDS011;66993;48.256;16.422;2023-11-21T19:28:34;6.4;;;3.5;;
77802;SDS011;66993;48.256;16.422;2023-11-21T19:33:40;7.0;;;3.8;;
77802;SDS011;66993;48.256;16.422;2023-11-21T19:38:37;6.3;;;3.7;;
77802;SDS011;66993;48.256;16.422;2023-11-21T19:43:39;8.0;;;4.7;;
77802;SDS011;66993;48.256;16.422;2023-11-21T19:48:39;7.3;;;4.2;;
77802;SDS011;66993;48.256;16.422;2023-11-21T19:53:40;7.0;;;4.4;;
77802;SDS011;66993;48.256;16.422;2023-11-21T19:58:41;9.8;;;5.7;;
77802;SDS011;66993;48.256;16.422;2023-11-21T20:03:43;9.5;;;4.9;;
77802;SDS011;66993;48.256;16.422;2023-11-21T20:08:44;8.4;;;5.3;;
77802;SDS011;66993;48.256;16.422;2023-11-21T20:13:45;8.7;;;5.0;;
77802;SDS011;66993;48.256;16.422;2023-11-21T20:18:47;8.2;;;5.2;;
77802;SDS011;66993;48.256;16.422;2023-11-21T20:23:48;8.3;;;5.4;;
77802;SDS011;66993;48.256;16.422;2023-11-21T20:28:49;7.8;;;4.9;;
77802;SDS011;66993;48.256;16.422;2023-11-21T20:33:50;10.0;;;5.8;;
77802;SDS011;66993;48.256;16.422;2023-11-21T20:38:52;7.7;;;4.8;;
77802;SDS011;66993;48.256;16.422;2023-11-21T20:43:53;9.3;;;6.4;;
77802;SDS011;66993;48.256;16.422;2023-11-21T20:48:54;9.5;;;6.3;;
77802;SDS011;66993;48.256;16.422;2023-11-21T20:53:55;12.4;;;5.8;;
77802;SDS011;66993;48.256;16.422;2023-11-21T20:58:57;11.7;;;7.0;;
77802;SDS011;66993;48.256;16.422;2023-11-21T21:03:58;11.0;;;6.7;;
77802;SDS011;66993;48.256;16.422;2023-11-21T21:08:59;9.9;;;6.3;;
77802;SDS011;66993;48.256;16.422;2023-11-21T21:14:00;11.7;;;7.2;;
77802;SDS011;66993;48.256;16.422;2023-11-21T21:19:02;11.2;;;6.5;;
77802;SDS011;66993;48.256;16.422;2023-11-21T21:24:03;10.2;;;7.2;;
77802;SDS011;66993;48.256;16.422;2023-11-21T21:29:04;11.7;;;6.7;;
77802;SDS011;66993;48.256;16.422;2023-11-21T21:34:05;12.3;;;7.4;;
77802;SDS011;66993;48.256;16.422;2023-11-21T21:39:07;10.8;;;7.2;;
77802;SDS011;66993;48.256;16.422;2023-11-21T21:44:08;10.7;;;6.5;;
77802;SDS011;66993;48.256;16.422;2023-11-21T21:49:09;11.6;;;6.9;;
77802;SDS011;66993;48.256;16.422;2023-11-21T21:54:10;8.8;;;6.2;;
77802;SDS011;66993;48.256;16.422;2023-11-21T21:59:12;11.0;;;6.6;;
77802;SDS011;66993;48.256;16.422;2023-11-21T22:04:13;10.9;;;6.7;;
77802;SDS011;66993;48.256;16.422;2023-11-21T22:09:14;10.5;;;7.0;;
77802;SDS011;66993;48.256;16.422;2023-11-21T22:14:16;12.9;;;7.8;;
77802;SDS011;66993;48.256;16.422;2023-11-21T22:19:17;12.0;;;7.1;;
77802;SDS011;66993;48.256;16.422;2023-11-21T22:24:18;11.1;;;7.5;;
77802;SDS011;66993;48.256;16.422;2023-11-21T22:29:20;12.7;;;7.2;;
77802;SDS011;66993;48.256;16.422;2023-11-21T22:34:21;12.1;;;7.0;;
77802;SDS011;66993;48.256;16.422;2023-11-21T22:39:22;13.1;;;7.8;;
77802;SDS011;66993;48.256;16.422;2023-11-21T22:44:24;10.4;;;6.8;;
77802;SDS011;66993;48.256;16.422;2023-11-21T22:49:25;13.2;;;6.8;;
77802;SDS011;66993;48.256;16.422;2023-11-21T22:54:26;11.1;;;6.9;;
77802;SDS011;66993;48.256;16.422;2023-11-21T22:59:28;10.2;;;6.7;;
77802;SDS011;66993;48.256;16.422;2023-11-21T23:04:29;12.2;;;7.0;;
77802;SDS011;66993;48.256;16.422;2023-11-21T23:09:31;12.2;;;6.4;;
77802;SDS011;66993;48.256;16.422;2023-11-21T23:14:31;12.5;;;7.3;;
77802;SDS011;66993;48.256;16.422;2023-11-21T23:19:32;10.9;;;6.9;;
77802;SDS011;66993;48.256;16.422;2023-11-21T23:24:33;12.9;;;6.9;;
77802;SDS011;66993;48.256;16.422;2023-11-21T23:29:35;10.8;;;7.4;;
77802;SDS011;66993;48.256;16.422;2023-11-21T23:34:36;13.3;;;7.6;;
77802;SDS011;66993;48.256;16.422;2023-11-21T23:39:38;14.2;;;7.7;;
77802;SDS011;66993;48.256;16.422;2023-11-21T23:44:38;12.7;;;7.9;;
77802;SDS011;66993;48.256;16.422;2023-11-21T23:49:40;12.4;;;7.6;;
77802;SDS011;66993;48.256;16.422;2023-11-21T23:54:41;12.5;;;7.7;;
77802;SDS011;66993;48.256;16.422;2023-11-21T23:59:42;13.0;;;7.7;;
